sensor_id;sensor_type;location;lat;lon;timestamp;P1;durP1;ratioP1;P2;durP2;ratioP2
13799;SDS011;6971;50.028;9.258;2023-03-23T00:02:22;2.53;;;1.77;;
13799;SDS011;6971;50.028;9.258;2023-03-23T00:07:24;2.00;;;1.77;;
13799;SDS011;6971;50.028;9.258;2023-03-23T00:12:28;4.73;;;1.63;;
13799;SDS011;6971;50.028;9.258;2023-03-23T00:17:33;2.00;;;1.80;;
13799;SDS011;6971;50.028;9.258;2023-03-23T00:22:34;2.70;;;1.90;;
13799;SDS011;6971;50.028;9.258;2023-03-23T00:27:37;2.20;;;1.50;;
13799;SDS011;6971;50.028;9.258;2023-03-23T00:32:38;2.40;;;1.70;;
13799;SDS011;6971;50.028;9.258;2023-03-23T00:37:38;2.77;;;1.50;;
13799;SDS011;6971;50.028;9.258;2023-03-23T00:42:39;3.77;;;1.73;;
13799;SDS011;6971;50.028;9.258;2023-03-23T00:47:39;2.03;;;1.50;;
13799;SDS011;6971;50.028;9.258;2023-03-23T00:52:41;1.50;;;1.30;;
13799;SDS011;6971;50.028;9.258;2023-03-23T00:57:41;2.73;;;1.47;;
13799;SDS011;6971;50.028;9.258;2023-03-23T01:02:42;2.57;;;1.57;;
13799;SDS011;6971;50.028;9.258;2023-03-23T01:07:44;2.00;;;1.73;;
13799;SDS011;6971;50.028;9.258;2023-03-23T01:12:46;3.20;;;2.00;;
13799;SDS011;6971;50.028;9.258;2023-03-23T01:17:46;2.17;;;1.40;;
13799;SDS011;6971;50.028;9.258;2023-03-23T01:22:47;1.57;;;1.20;;
13799;SDS011;6971;50.028;9.258;2023-03-23T01:27:47;4.13;;;1.60;;
13799;SDS011;6971;50.028;9.258;2023-03-23T01:32:47;2.40;;;1.70;;
13799;SDS011;6971;50.028;9.258;2023-03-23T01:37:48;3.13;;;1.60;;
13799;SDS011;6971;50.028;9.258;2023-03-23T01:42:48;4.10;;;1.33;;
13799;SDS011;6971;50.028;9.258;2023-03-23T01:47:50;3.03;;;1.50;;
13799;SDS011;6971;50.028;9.258;2023-03-23T01:52:55;1.47;;;1.20;;
13799;SDS011;6971;50.028;9.258;2023-03-23T01:57:59;2.73;;;1.30;;
13799;SDS011;6971;50.028;9.258;2023-03-23T02:03:00;2.77;;;1.20;;
13799;SDS011;6971;50.028;9.258;2023-03-23T02:08:01;2.33;;;1.30;;
13799;SDS011;6971;50.028;9.258;2023-03-23T02:13:06;1.73;;;1.30;;
13799;SDS011;6971;50.028;9.258;2023-03-23T02:18:14;1.33;;;1.23;;
13799;SDS011;6971;50.028;9.258;2023-03-23T02:34:20;4.47;;;1.67;;
13799;SDS011;6971;50.028;9.258;2023-03-23T02:39:30;2.17;;;1.73;;
13799;SDS011;6971;50.028;9.258;2023-03-23T02:44:36;2.60;;;1.20;;
13799;SDS011;6971;50.028;9.258;2023-03-23T02:49:40;2.33;;;1.30;;
13799;SDS011;6971;50.028;9.258;2023-03-23T02:54:44;1.50;;;1.20;;
13799;SDS011;6971;50.028;9.258;2023-03-23T02:59:47;2.70;;;1.73;;
13799;SDS011;6971;50.028;9.258;2023-03-23T03:04:52;1.97;;;1.23;;
13799;SDS011;6971;50.028;9.258;2023-03-23T03:09:59;1.87;;;1.47;;
13799;SDS011;6971;50.028;9.258;2023-03-23T03:15:06;2.07;;;1.43;;
13799;SDS011;6971;50.028;9.258;2023-03-23T03:20:08;2.03;;;1.50;;
13799;SDS011;6971;50.028;9.258;2023-03-23T03:25:12;1.80;;;1.40;;
13799;SDS011;6971;50.028;9.258;2023-03-23T03:30:16;2.20;;;1.33;;
13799;SDS011;6971;50.028;9.258;2023-03-23T03:35:22;2.20;;;1.30;;
13799;SDS011;6971;50.028;9.258;2023-03-23T03:40:24;2.67;;;1.50;;
13799;SDS011;6971;50.028;9.258;2023-03-23T03:45:24;4.13;;;1.50;;
13799;SDS011;6971;50.028;9.258;2023-03-23T03:50:24;1.40;;;1.30;;
13799;SDS011;6971;50.028;9.258;2023-03-23T03:55:26;1.80;;;1.50;;
13799;SDS011;6971;50.028;9.258;2023-03-23T04:00:27;1.90;;;1.70;;
13799;SDS011;6971;50.028;9.258;2023-03-23T04:05:28;1.77;;;1.60;;
13799;SDS011;6971;50.028;9.258;2023-03-23T04:10:33;2.77;;;1.77;;
13799;SDS011;6971;50.028;9.258;2023-03-23T04:15:33;2.63;;;1.80;;
13799;SDS011;6971;50.028;9.258;2023-03-23T04:20:35;3.30;;;1.97;;
13799;SDS011;6971;50.028;9.258;2023-03-23T04:25:37;4.07;;;1.70;;
13799;SDS011;6971;50.028;9.258;2023-03-23T04:30:37;5.27;;;1.90;;
13799;SDS011;6971;50.028;9.258;2023-03-23T04:35:38;4.20;;;2.20;;
13799;SDS011;6971;50.028;9.258;2023-03-23T04:40:39;3.43;;;2.20;;
13799;SDS011;6971;50.028;9.258;2023-03-23T04:45:41;3.87;;;1.97;;
13799;SDS011;6971;50.028;9.258;2023-03-23T04:50:45;4.43;;;2.17;;
13799;SDS011;6971;50.028;9.258;2023-03-23T04:55:46;2.53;;;2.17;;
13799;SDS011;6971;50.028;9.258;2023-03-23T05:00:48;4.37;;;2.60;;
13799;SDS011;6971;50.028;9.258;2023-03-23T05:05:51;2.87;;;2.33;;
13799;SDS011;6971;50.028;9.258;2023-03-23T05:10:52;4.80;;;2.10;;
13799;SDS011;6971;50.028;9.258;2023-03-23T05:15:54;4.30;;;2.60;;
13799;SDS011;6971;50.028;9.258;2023-03-23T05:20:54;5.43;;;3.60;;
13799;SDS011;6971;50.028;9.258;2023-03-23T05:25:55;5.17;;;3.17;;
13799;SDS011;6971;50.028;9.258;2023-03-23T05:31:00;3.07;;;2.30;;
13799;SDS011;6971;50.028;9.258;2023-03-23T05:36:01;3.33;;;2.10;;
13799;SDS011;6971;50.028;9.258;2023-03-23T05:41:04;2.13;;;1.87;;
13799;SDS011;6971;50.028;9.258;2023-03-23T05:46:04;4.27;;;2.00;;
13799;SDS011;6971;50.028;9.258;2023-03-23T05:51:05;3.63;;;2.20;;
13799;SDS011;6971;50.028;9.258;2023-03-23T05:56:05;6.10;;;2.33;;
13799;SDS011;6971;50.028;9.258;2023-03-23T06:01:07;6.60;;;3.47;;
13799;SDS011;6971;50.028;9.258;2023-03-23T06:06:11;5.67;;;3.20;;
13799;SDS011;6971;50.028;9.258;2023-03-23T06:11:11;3.77;;;3.20;;
13799;SDS011;6971;50.028;9.258;2023-03-23T06:16:13;4.90;;;2.83;;
13799;SDS011;6971;50.028;9.258;2023-03-23T06:21:14;5.90;;;3.20;;
13799;SDS011;6971;50.028;9.258;2023-03-23T06:26:15;4.23;;;2.73;;
13799;SDS011;6971;50.028;9.258;2023-03-23T06:31:18;9.97;;;6.33;;
13799;SDS011;6971;50.028;9.258;2023-03-23T06:36:20;6.43;;;5.57;;
13799;SDS011;6971;50.028;9.258;2023-03-23T06:41:20;4.90;;;3.40;;
13799;SDS011;6971;50.028;9.258;2023-03-23T06:46:21;5.57;;;3.00;;
13799;SDS011;6971;50.028;9.258;2023-03-23T06:51:21;7.63;;;4.87;;
13799;SDS011;6971;50.028;9.258;2023-03-23T06:56:22;8.40;;;5.07;;
13799;SDS011;6971;50.028;9.258;2023-03-23T07:01:22;6.27;;;4.03;;
13799;SDS011;6971;50.028;9.258;2023-03-23T07:06:25;6.77;;;3.47;;
13799;SDS011;6971;50.028;9.258;2023-03-23T07:11:26;6.00;;;3.43;;
13799;SDS011;6971;50.028;9.258;2023-03-23T07:16:27;5.40;;;4.23;;
13799;SDS011;6971;50.028;9.258;2023-03-23T07:21:28;5.10;;;4.50;;
13799;SDS011;6971;50.028;9.258;2023-03-23T07:26:28;9.50;;;6.17;;
13799;SDS011;6971;50.028;9.258;2023-03-23T07:31:28;8.60;;;7.10;;
13799;SDS011;6971;50.028;9.258;2023-03-23T07:36:29;4.90;;;3.83;;
13799;SDS011;6971;50.028;9.258;2023-03-23T07:41:32;4.40;;;4.00;;
13799;SDS011;6971;50.028;9.258;2023-03-23T07:46:33;5.33;;;3.63;;
13799;SDS011;6971;50.028;9.258;2023-03-23T07:51:34;4.27;;;3.73;;
13799;SDS011;6971;50.028;9.258;2023-03-23T07:56:35;4.03;;;3.23;;
13799;SDS011;6971;50.028;9.258;2023-03-23T08:01:39;6.10;;;2.80;;
13799;SDS011;6971;50.028;9.258;2023-03-23T08:06:40;3.13;;;2.67;;
13799;SDS011;6971;50.028;9.258;2023-03-23T08:11:42;3.40;;;3.00;;
13799;SDS011;6971;50.028;9.258;2023-03-23T08:16:43;2.63;;;2.43;;
13799;SDS011;6971;50.028;9.258;2023-03-23T08:21:43;2.60;;;2.40;;
13799;SDS011;6971;50.028;9.258;2023-03-23T08:26:45;3.73;;;2.10;;
13799;SDS011;6971;50.028;9.258;2023-03-23T08:31:46;3.70;;;2.57;;
13799;SDS011;6971;50.028;9.258;2023-03-23T08:36:47;2.30;;;2.10;;
13799;SDS011;6971;50.028;9.258;2023-03-23T08:41:47;2.77;;;2.40;;
13799;SDS011;6971;50.028;9.258;2023-03-23T08:46:47;5.77;;;2.10;;
13799;SDS011;6971;50.028;9.258;2023-03-23T08:51:49;2.67;;;2.23;;
13799;SDS011;6971;50.028;9.258;2023-03-23T08:56:50;3.07;;;1.93;;
13799;SDS011;6971;50.028;9.258;2023-03-23T09:01:51;2.40;;;2.17;;
13799;SDS011;6971;50.028;9.258;2023-03-23T09:06:51;2.63;;;2.00;;
13799;SDS011;6971;50.028;9.258;2023-03-23T09:11:52;8.33;;;7.33;;
13799;SDS011;6971;50.028;9.258;2023-03-23T09:16:53;3.70;;;3.03;;
13799;SDS011;6971;50.028;9.258;2023-03-23T09:21:53;2.87;;;1.87;;
13799;SDS011;6971;50.028;9.258;2023-03-23T09:26:54;2.80;;;2.60;;
13799;SDS011;6971;50.028;9.258;2023-03-23T09:31:54;2.70;;;2.13;;
13799;SDS011;6971;50.028;9.258;2023-03-23T09:36:56;3.50;;;2.50;;
13799;SDS011;6971;50.028;9.258;2023-03-23T09:42:03;2.20;;;1.90;;
13799;SDS011;6971;50.028;9.258;2023-03-23T09:47:16;3.60;;;1.80;;
13799;SDS011;6971;50.028;9.258;2023-03-23T09:52:18;1.50;;;1.40;;
13799;SDS011;6971;50.028;9.258;2023-03-23T09:57:30;1.90;;;1.70;;
13799;SDS011;6971;50.028;9.258;2023-03-23T10:08:19;1.50;;;1.40;;
13799;SDS011;6971;50.028;9.258;2023-03-23T10:18:45;4.87;;;2.30;;
13799;SDS011;6971;50.028;9.258;2023-03-23T10:23:54;2.47;;;2.03;;
13799;SDS011;6971;50.028;9.258;2023-03-23T10:29:11;2.70;;;2.47;;
13799;SDS011;6971;50.028;9.258;2023-03-23T10:34:17;4.57;;;2.27;;
13799;SDS011;6971;50.028;9.258;2023-03-23T10:39:23;2.00;;;1.80;;
13799;SDS011;6971;50.028;9.258;2023-03-23T10:44:26;1.53;;;1.43;;
13799;SDS011;6971;50.028;9.258;2023-03-23T10:49:32;3.67;;;2.00;;
13799;SDS011;6971;50.028;9.258;2023-03-23T10:54:37;1.90;;;1.60;;
13799;SDS011;6971;50.028;9.258;2023-03-23T10:59:40;2.10;;;1.80;;
13799;SDS011;6971;50.028;9.258;2023-03-23T11:04:44;2.90;;;2.60;;
13799;SDS011;6971;50.028;9.258;2023-03-23T11:09:54;3.13;;;2.60;;
13799;SDS011;6971;50.028;9.258;2023-03-23T11:15:03;1.67;;;1.57;;
13799;SDS011;6971;50.028;9.258;2023-03-23T11:20:12;4.13;;;1.10;;
13799;SDS011;6971;50.028;9.258;2023-03-23T11:25:12;1.40;;;1.23;;
13799;SDS011;6971;50.028;9.258;2023-03-23T11:30:22;2.37;;;1.03;;
13799;SDS011;6971;50.028;9.258;2023-03-23T11:35:26;2.17;;;1.70;;
13799;SDS011;6971;50.028;9.258;2023-03-23T11:40:31;4.07;;;1.50;;
13799;SDS011;6971;50.028;9.258;2023-03-23T11:45:40;1.33;;;1.10;;
13799;SDS011;6971;50.028;9.258;2023-03-23T11:56:25;1.10;;;1.00;;
13799;SDS011;6971;50.028;9.258;2023-03-23T12:07:09;1.50;;;1.20;;
13799;SDS011;6971;50.028;9.258;2023-03-23T12:23:15;1.00;;;0.90;;
13799;SDS011;6971;50.028;9.258;2023-03-23T12:50:01;1.93;;;1.20;;
13799;SDS011;6971;50.028;9.258;2023-03-23T12:55:15;1.47;;;1.10;;
13799;SDS011;6971;50.028;9.258;2023-03-23T13:00:23;4.03;;;1.90;;
13799;SDS011;6971;50.028;9.258;2023-03-23T13:05:35;1.70;;;1.07;;
13799;SDS011;6971;50.028;9.258;2023-03-23T13:10:48;2.43;;;1.10;;
13799;SDS011;6971;50.028;9.258;2023-03-23T13:26:38;1.40;;;1.20;;
13799;SDS011;6971;50.028;9.258;2023-03-23T13:31:41;1.97;;;1.20;;
13799;SDS011;6971;50.028;9.258;2023-03-23T13:36:43;1.37;;;1.27;;
13799;SDS011;6971;50.028;9.258;2023-03-23T13:47:14;2.43;;;2.00;;
13799;SDS011;6971;50.028;9.258;2023-03-23T13:52:21;3.13;;;1.40;;
13799;SDS011;6971;50.028;9.258;2023-03-23T13:57:37;1.63;;;1.53;;
13799;SDS011;6971;50.028;9.258;2023-03-23T14:02:49;1.83;;;1.30;;
13799;SDS011;6971;50.028;9.258;2023-03-23T14:07:51;2.40;;;1.47;;
13799;SDS011;6971;50.028;9.258;2023-03-23T14:12:52;1.10;;;1.00;;
13799;SDS011;6971;50.028;9.258;2023-03-23T14:17:54;1.67;;;1.07;;
13799;SDS011;6971;50.028;9.258;2023-03-23T14:22:54;1.10;;;1.10;;
13799;SDS011;6971;50.028;9.258;2023-03-23T14:27:56;1.50;;;1.10;;
13799;SDS011;6971;50.028;9.258;2023-03-23T14:33:02;1.30;;;1.20;;
13799;SDS011;6971;50.028;9.258;2023-03-23T14:38:05;2.20;;;1.20;;
13799;SDS011;6971;50.028;9.258;2023-03-23T14:43:15;1.73;;;1.60;;
13799;SDS011;6971;50.028;9.258;2023-03-23T14:48:18;2.70;;;1.93;;
13799;SDS011;6971;50.028;9.258;2023-03-23T14:53:22;1.83;;;0.90;;
13799;SDS011;6971;50.028;9.258;2023-03-23T14:58:23;1.67;;;1.53;;
13799;SDS011;6971;50.028;9.258;2023-03-23T15:03:24;2.20;;;1.83;;
13799;SDS011;6971;50.028;9.258;2023-03-23T15:08:27;2.83;;;2.53;;
13799;SDS011;6971;50.028;9.258;2023-03-23T15:13:31;1.40;;;1.30;;
13799;SDS011;6971;50.028;9.258;2023-03-23T15:18:34;2.63;;;1.97;;
13799;SDS011;6971;50.028;9.258;2023-03-23T15:23:40;3.27;;;1.70;;
13799;SDS011;6971;50.028;9.258;2023-03-23T15:28:42;1.63;;;1.53;;
13799;SDS011;6971;50.028;9.258;2023-03-23T15:33:45;1.40;;;1.30;;
13799;SDS011;6971;50.028;9.258;2023-03-23T15:38:46;2.20;;;1.40;;
13799;SDS011;6971;50.028;9.258;2023-03-23T15:43:51;2.70;;;1.67;;
13799;SDS011;6971;50.028;9.258;2023-03-23T15:54:00;2.20;;;1.30;;
13799;SDS011;6971;50.028;9.258;2023-03-23T15:59:01;2.43;;;1.70;;
13799;SDS011;6971;50.028;9.258;2023-03-23T16:04:05;1.70;;;1.60;;
13799;SDS011;6971;50.028;9.258;2023-03-23T16:09:13;3.23;;;2.27;;
13799;SDS011;6971;50.028;9.258;2023-03-23T16:14:15;4.90;;;1.87;;
13799;SDS011;6971;50.028;9.258;2023-03-23T16:19:15;2.30;;;1.70;;
13799;SDS011;6971;50.028;9.258;2023-03-23T16:24:17;2.67;;;1.60;;
13799;SDS011;6971;50.028;9.258;2023-03-23T16:29:18;3.83;;;1.93;;
13799;SDS011;6971;50.028;9.258;2023-03-23T16:34:18;2.80;;;2.30;;
13799;SDS011;6971;50.028;9.258;2023-03-23T16:39:18;2.17;;;1.70;;
13799;SDS011;6971;50.028;9.258;2023-03-23T16:44:19;3.13;;;1.93;;
13799;SDS011;6971;50.028;9.258;2023-03-23T16:49:19;2.10;;;1.90;;
13799;SDS011;6971;50.028;9.258;2023-03-23T16:54:19;3.50;;;2.90;;
13799;SDS011;6971;50.028;9.258;2023-03-23T16:59:20;3.10;;;2.47;;
13799;SDS011;6971;50.028;9.258;2023-03-23T17:04:22;2.83;;;2.00;;
13799;SDS011;6971;50.028;9.258;2023-03-23T17:09:25;1.63;;;1.33;;
13799;SDS011;6971;50.028;9.258;2023-03-23T17:14:26;2.43;;;1.47;;
13799;SDS011;6971;50.028;9.258;2023-03-23T17:19:26;1.50;;;1.23;;
13799;SDS011;6971;50.028;9.258;2023-03-23T17:24:27;4.33;;;2.40;;
13799;SDS011;6971;50.028;9.258;2023-03-23T17:29:27;2.53;;;2.10;;
13799;SDS011;6971;50.028;9.258;2023-03-23T17:34:27;2.13;;;1.93;;
13799;SDS011;6971;50.028;9.258;2023-03-23T17:39:28;3.70;;;2.80;;
13799;SDS011;6971;50.028;9.258;2023-03-23T17:44:30;3.83;;;3.50;;
13799;SDS011;6971;50.028;9.258;2023-03-23T17:49:31;2.87;;;2.10;;
13799;SDS011;6971;50.028;9.258;2023-03-23T17:54:31;3.17;;;1.70;;
13799;SDS011;6971;50.028;9.258;2023-03-23T17:59:32;2.80;;;2.00;;
13799;SDS011;6971;50.028;9.258;2023-03-23T18:04:32;3.47;;;2.20;;
13799;SDS011;6971;50.028;9.258;2023-03-23T18:09:32;3.30;;;1.70;;
13799;SDS011;6971;50.028;9.258;2023-03-23T18:14:33;2.63;;;2.20;;
13799;SDS011;6971;50.028;9.258;2023-03-23T18:19:34;3.90;;;1.50;;
13799;SDS011;6971;50.028;9.258;2023-03-23T18:24:35;2.43;;;1.67;;
13799;SDS011;6971;50.028;9.258;2023-03-23T18:29:35;4.30;;;3.03;;
13799;SDS011;6971;50.028;9.258;2023-03-23T18:34:36;3.03;;;2.10;;
13799;SDS011;6971;50.028;9.258;2023-03-23T18:39:40;3.47;;;1.73;;
13799;SDS011;6971;50.028;9.258;2023-03-23T18:44:41;3.83;;;1.60;;
13799;SDS011;6971;50.028;9.258;2023-03-23T18:49:41;6.57;;;1.97;;
13799;SDS011;6971;50.028;9.258;2023-03-23T18:54:41;5.97;;;1.60;;
13799;SDS011;6971;50.028;9.258;2023-03-23T18:59:44;3.83;;;2.00;;
13799;SDS011;6971;50.028;9.258;2023-03-23T19:04:45;5.93;;;3.60;;
13799;SDS011;6971;50.028;9.258;2023-03-23T19:09:46;5.63;;;3.23;;
13799;SDS011;6971;50.028;9.258;2023-03-23T19:14:46;3.73;;;2.63;;
13799;SDS011;6971;50.028;9.258;2023-03-23T19:19:47;9.57;;;6.60;;
13799;SDS011;6971;50.028;9.258;2023-03-23T19:24:47;6.40;;;2.07;;
13799;SDS011;6971;50.028;9.258;2023-03-23T19:29:47;4.00;;;2.60;;
13799;SDS011;6971;50.028;9.258;2023-03-23T19:34:48;7.77;;;4.90;;
13799;SDS011;6971;50.028;9.258;2023-03-23T19:39:48;5.60;;;2.13;;
13799;SDS011;6971;50.028;9.258;2023-03-23T19:44:48;4.50;;;1.87;;
13799;SDS011;6971;50.028;9.258;2023-03-23T19:49:49;6.50;;;2.00;;
13799;SDS011;6971;50.028;9.258;2023-03-23T19:54:50;3.50;;;2.10;;
13799;SDS011;6971;50.028;9.258;2023-03-23T19:59:50;5.97;;;2.27;;
13799;SDS011;6971;50.028;9.258;2023-03-23T20:04:50;4.57;;;2.20;;
13799;SDS011;6971;50.028;9.258;2023-03-23T20:09:51;4.73;;;2.80;;
13799;SDS011;6971;50.028;9.258;2023-03-23T20:14:51;8.87;;;2.13;;
13799;SDS011;6971;50.028;9.258;2023-03-23T20:19:51;4.80;;;2.70;;
13799;SDS011;6971;50.028;9.258;2023-03-23T20:24:52;5.63;;;2.40;;
13799;SDS011;6971;50.028;9.258;2023-03-23T20:29:53;7.47;;;2.80;;
13799;SDS011;6971;50.028;9.258;2023-03-23T20:34:54;5.10;;;3.10;;
13799;SDS011;6971;50.028;9.258;2023-03-23T20:39:56;5.03;;;3.67;;
13799;SDS011;6971;50.028;9.258;2023-03-23T20:44:56;5.47;;;2.40;;
13799;SDS011;6971;50.028;9.258;2023-03-23T20:49:57;4.30;;;2.83;;
13799;SDS011;6971;50.028;9.258;2023-03-23T20:54:57;5.70;;;2.40;;
13799;SDS011;6971;50.028;9.258;2023-03-23T20:59:58;4.93;;;2.50;;
13799;SDS011;6971;50.028;9.258;2023-03-23T21:04:58;6.13;;;2.87;;
13799;SDS011;6971;50.028;9.258;2023-03-23T21:10:03;4.90;;;2.60;;
13799;SDS011;6971;50.028;9.258;2023-03-23T21:15:03;3.53;;;3.10;;
13799;SDS011;6971;50.028;9.258;2023-03-23T21:20:05;5.57;;;2.50;;
13799;SDS011;6971;50.028;9.258;2023-03-23T21:25:06;5.60;;;3.30;;
13799;SDS011;6971;50.028;9.258;2023-03-23T21:30:09;6.73;;;3.90;;
13799;SDS011;6971;50.028;9.258;2023-03-23T21:35:09;7.23;;;4.87;;
13799;SDS011;6971;50.028;9.258;2023-03-23T21:40:12;23.43;;;16.37;;
13799;SDS011;6971;50.028;9.258;2023-03-23T21:45:14;14.90;;;11.33;;
13799;SDS011;6971;50.028;9.258;2023-03-23T21:50:19;8.80;;;4.87;;
13799;SDS011;6971;50.028;9.258;2023-03-23T21:55:20;5.53;;;3.20;;
13799;SDS011;6971;50.028;9.258;2023-03-23T22:00:22;5.03;;;4.53;;
13799;SDS011;6971;50.028;9.258;2023-03-23T22:05:22;7.83;;;4.40;;
13799;SDS011;6971;50.028;9.258;2023-03-23T22:10:23;8.37;;;3.83;;
13799;SDS011;6971;50.028;9.258;2023-03-23T22:15:26;8.60;;;6.33;;
13799;SDS011;6971;50.028;9.258;2023-03-23T22:20:27;5.23;;;3.30;;
13799;SDS011;6971;50.028;9.258;2023-03-23T22:25:28;4.87;;;3.40;;
13799;SDS011;6971;50.028;9.258;2023-03-23T22:30:29;8.73;;;3.30;;
13799;SDS011;6971;50.028;9.258;2023-03-23T22:35:31;8.57;;;3.77;;
13799;SDS011;6971;50.028;9.258;2023-03-23T22:40:32;8.63;;;5.70;;
13799;SDS011;6971;50.028;9.258;2023-03-23T22:45:33;6.40;;;4.57;;
13799;SDS011;6971;50.028;9.258;2023-03-23T22:50:33;11.40;;;6.60;;
13799;SDS011;6971;50.028;9.258;2023-03-23T22:55:34;6.60;;;4.10;;
13799;SDS011;6971;50.028;9.258;2023-03-23T23:00:34;20.27;;;9.33;;
13799;SDS011;6971;50.028;9.258;2023-03-23T23:05:40;14.70;;;7.97;;
13799;SDS011;6971;50.028;9.258;2023-03-23T23:10:43;12.90;;;6.80;;
13799;SDS011;6971;50.028;9.258;2023-03-23T23:15:48;5.70;;;4.37;;
13799;SDS011;6971;50.028;9.258;2023-03-23T23:20:56;4.10;;;3.70;;
13799;SDS011;6971;50.028;9.258;2023-03-23T23:25:58;7.37;;;4.60;;
13799;SDS011;6971;50.028;9.258;2023-03-23T23:30:59;9.80;;;4.63;;
13799;SDS011;6971;50.028;9.258;2023-03-23T23:36:00;5.20;;;4.23;;
13799;SDS011;6971;50.028;9.258;2023-03-23T23:41:01;5.33;;;4.53;;
13799;SDS011;6971;50.028;9.258;2023-03-23T23:46:01;8.60;;;5.27;;
13799;SDS011;6971;50.028;9.258;2023-03-23T23:51:01;5.27;;;4.77;;
13799;SDS011;6971;50.028;9.258;2023-03-23T23:56:02;10.27;;;6.00;;
